createdAt,value
2023-01-11T00:02:35.252Z,99799.06
2023-01-11T00:05:19.188Z,99812.63
2023-01-11T00:08:04.859Z,99785.31
2023-01-11T00:10:48.678Z,99775.69
2023-01-11T00:13:32.918Z,99788.69
2023-01-11T00:16:16.676Z,99815.94
2023-01-11T00:19:00.528Z,99836.91
2023-01-11T00:21:44.327Z,99848.28
2023-01-11T00:24:29.902Z,99822.78
2023-01-11T00:27:13.912Z,99825.03
2023-01-11T00:29:58.000Z,99820.16
2023-01-11T00:32:42.095Z,99874.97
2023-01-11T00:35:26.713Z,99838.41
2023-01-11T00:38:30.699Z,99831.59
2023-01-11T00:41:34.908Z,99835.50
2023-01-11T00:44:36.743Z,99860.28
2023-01-11T00:47:38.201Z,99845.22
2023-01-11T00:50:22.194Z,99862.28
2023-01-11T00:53:07.083Z,99774.84
2023-01-11T00:55:51.103Z,99801.03
2023-01-11T00:58:36.648Z,99782.53
2023-01-11T01:01:20.568Z,99770.00
2023-01-11T01:04:05.111Z,99818.22
2023-01-11T01:06:49.154Z,99809.28
2023-01-11T01:09:33.257Z,99806.16
2023-01-11T01:12:38.648Z,99808.53
2023-01-11T01:15:23.314Z,99783.03
2023-01-11T01:18:07.458Z,99770.84
2023-01-11T01:20:52.045Z,99804.75
2023-01-11T01:23:36.029Z,99804.94
2023-01-11T01:26:19.942Z,99807.91
2023-01-11T01:29:04.007Z,99803.91
2023-01-11T01:31:49.479Z,99784.59
2023-01-11T01:34:37.505Z,99769.28
2023-01-11T01:37:21.550Z,99777.94
2023-01-11T01:40:06.774Z,99827.22
2023-01-11T01:42:55.206Z,99831.94
2023-01-11T01:45:39.250Z,99808.59
2023-01-11T01:48:28.183Z,99821.38
2023-01-11T01:51:17.877Z,99852.16
2023-01-11T01:54:07.512Z,99783.78
2023-01-11T01:56:55.069Z,99823.78
2023-01-11T01:59:39.412Z,99869.38
2023-01-11T02:02:26.581Z,99860.38
2023-01-11T02:05:14.210Z,99792.81
2023-01-11T02:08:01.934Z,99863.53
2023-01-11T02:10:45.916Z,99877.25
2023-01-11T02:13:30.583Z,99854.63
2023-01-11T02:16:14.802Z,99880.88
2023-01-11T02:18:59.806Z,99853.75
2023-01-11T02:21:57.972Z,99832.31
2023-01-11T02:25:08.570Z,99838.91
2023-01-11T02:28:07.119Z,99867.19
2023-01-11T02:31:00.524Z,99809.06
2023-01-11T02:33:52.909Z,99772.66
2023-01-11T02:36:48.520Z,99840.75
2023-01-11T02:39:41.562Z,99818.00
2023-01-11T02:42:55.399Z,99818.19
2023-01-11T02:45:50.118Z,99848.00
2023-01-11T02:48:41.225Z,99793.22
2023-01-11T02:51:29.829Z,99856.75
2023-01-11T02:54:18.787Z,99829.72
2023-01-11T02:57:04.146Z,99827.91
2023-01-11T02:59:50.103Z,99817.47
2023-01-11T03:02:35.300Z,99880.50
2023-01-11T03:05:19.136Z,99900.00
2023-01-11T03:08:13.408Z,99908.81
2023-01-11T03:11:04.754Z,99917.56
2023-01-11T03:14:01.557Z,99930.63
2023-01-11T03:16:53.277Z,99930.75
2023-01-11T03:19:45.235Z,99923.78
2023-01-11T03:22:40.393Z,99937.16
2023-01-11T03:25:32.219Z,99936.84
2023-01-11T03:28:23.782Z,99919.84
2023-01-11T03:31:16.528Z,99935.50
2023-01-11T03:34:08.200Z,99922.72
2023-01-11T03:36:57.491Z,99888.84
2023-01-11T03:39:47.420Z,99917.38
2023-01-11T03:42:33.701Z,99901.94
2023-01-11T03:45:17.849Z,99919.63
2023-01-11T03:48:04.336Z,99859.91
2023-01-11T03:50:50.712Z,99854.44
2023-01-11T03:53:39.027Z,99887.16
2023-01-11T03:56:26.543Z,99907.59
2023-01-11T03:59:10.346Z,99908.94
2023-01-11T04:01:54.866Z,99923.75
2023-01-11T04:04:39.113Z,99930.91
2023-01-11T04:07:22.929Z,99943.19
2023-01-11T04:10:09.890Z,99941.47
2023-01-11T04:12:53.679Z,99934.63
2023-01-11T04:15:37.419Z,99946.25
2023-01-11T04:18:21.380Z,99935.44
2023-01-11T04:21:05.665Z,99937.25
2023-01-11T04:23:49.450Z,99953.41
2023-01-11T04:26:34.787Z,99927.84
2023-01-11T04:29:18.585Z,99942.25
2023-01-11T04:32:03.711Z,99947.31
2023-01-11T04:34:47.563Z,99945.38
2023-01-11T04:37:31.337Z,99945.91
2023-01-11T04:40:16.219Z,99941.50
2023-01-11T04:43:02.475Z,99943.19
2023-01-11T04:45:46.321Z,99951.28
2023-01-11T04:48:30.081Z,99954.78
2023-01-11T04:51:13.845Z,99924.03
2023-01-11T04:53:57.789Z,99959.91
2023-01-11T04:56:41.704Z,99974.81
2023-01-11T04:59:27.244Z,99929.63
2023-01-11T05:02:11.168Z,99941.16
2023-01-11T05:04:55.246Z,99936.13
2023-01-11T05:07:39.469Z,99935.44
2023-01-11T05:10:23.468Z,99930.06
2023-01-11T05:13:07.318Z,99957.16
2023-01-11T05:15:52.571Z,99964.25
2023-01-11T05:18:36.737Z,99943.69
2023-01-11T05:21:22.976Z,99953.59
2023-01-11T05:24:09.129Z,99986.97
2023-01-11T05:26:53.397Z,99987.66
2023-01-11T05:29:37.246Z,99991.09
2023-01-11T05:32:22.642Z,99990.91
2023-01-11T05:35:10.162Z,99958.78
2023-01-11T05:37:54.249Z,99963.06
2023-01-11T05:40:38.341Z,99986.31
2023-01-11T05:43:22.367Z,99969.47
2023-01-11T05:46:05.634Z,99976.59
2023-01-11T05:48:51.360Z,100011.03
2023-01-11T05:51:35.816Z,99965.88
2023-01-11T05:54:19.782Z,99972.50
2023-01-11T05:57:03.831Z,100000.03
2023-01-11T05:59:47.813Z,99969.59
2023-01-11T06:02:31.916Z,99993.66
2023-01-11T06:05:17.662Z,99992.88
2023-01-11T06:08:01.744Z,99981.88
2023-01-11T06:10:51.650Z,99981.56
2023-01-11T06:13:35.860Z,100018.44
2023-01-11T06:16:22.311Z,100021.94
2023-01-11T06:19:06.542Z,100029.59
2023-01-11T06:21:51.975Z,100024.16
2023-01-11T06:24:36.178Z,100029.84
2023-01-11T06:27:20.170Z,100036.72
2023-01-11T06:30:04.456Z,100052.97
2023-01-11T06:32:48.668Z,100020.81
2023-01-11T06:35:32.834Z,100078.38
2023-01-11T06:38:19.804Z,100032.34
2023-01-11T06:41:07.293Z,100022.88
2023-01-11T06:43:52.532Z,100079.75
2023-01-11T06:46:36.547Z,100073.00
2023-01-11T06:49:21.035Z,100037.53
2023-01-11T06:52:05.271Z,100072.06
2023-01-11T06:54:50.792Z,100062.44
2023-01-11T06:57:35.008Z,100073.34
2023-01-11T07:00:20.173Z,100046.31
2023-01-11T07:03:05.398Z,100046.41
2023-01-11T07:05:49.527Z,100053.56
2023-01-11T07:08:33.557Z,100063.97
2023-01-11T07:11:19.288Z,100062.34
2023-01-11T07:14:03.403Z,100033.53
2023-01-11T07:16:47.440Z,100094.06
2023-01-11T07:19:31.640Z,100046.13
2023-01-11T07:22:16.334Z,100042.22
2023-01-11T07:25:00.326Z,100079.81
2023-01-11T07:27:46.070Z,100040.31
2023-01-11T07:30:34.411Z,100074.75
2023-01-11T07:33:21.736Z,100079.00
2023-01-11T07:36:06.699Z,100045.19
2023-01-11T07:38:51.001Z,100087.00
2023-01-11T07:41:52.210Z,100091.06
2023-01-11T07:44:37.776Z,100095.06
2023-01-11T07:47:21.796Z,100085.34
2023-01-11T07:50:07.063Z,100023.84
2023-01-11T07:52:51.288Z,100107.09
2023-01-11T07:55:36.039Z,100110.97
2023-01-11T07:58:20.295Z,100115.28
2023-01-11T08:01:06.571Z,100117.31
2023-01-11T08:03:50.743Z,100117.00
2023-01-11T08:06:34.460Z,100129.41
2023-01-11T08:09:18.282Z,100124.31
2023-01-11T08:12:19.560Z,100128.91
2023-01-11T08:15:03.578Z,100127.13
2023-01-11T08:17:49.018Z,100138.16
2023-01-11T08:20:32.988Z,100137.56
2023-01-11T08:23:16.831Z,100131.63
2023-01-11T08:26:00.572Z,100131.63
2023-01-11T08:28:44.560Z,100139.66
2023-01-11T08:31:28.621Z,100113.81
2023-01-11T08:34:14.210Z,100122.41
2023-01-11T08:37:01.982Z,100137.50
2023-01-11T08:39:46.059Z,100129.19
2023-01-11T08:42:30.089Z,100124.28
2023-01-11T08:45:14.036Z,100162.97
2023-01-11T08:48:00.373Z,100162.66
2023-01-11T08:50:46.188Z,100169.47
2023-01-11T08:53:30.275Z,100136.88
2023-01-11T08:56:14.843Z,100167.41
2023-01-11T08:58:58.827Z,100127.84
2023-01-11T09:01:42.959Z,100130.56
2023-01-11T09:04:27.068Z,100157.34
2023-01-11T09:07:12.489Z,100137.22
2023-01-11T09:09:56.536Z,100124.03
2023-01-11T09:12:40.535Z,100170.25
2023-01-11T09:15:25.194Z,100144.13
2023-01-11T09:18:09.183Z,100137.63
2023-01-11T09:20:53.208Z,100152.56
2023-01-11T09:23:38.435Z,100173.56
2023-01-11T09:26:22.250Z,100066.59
2023-01-11T09:29:06.199Z,100171.88
2023-01-11T09:31:50.013Z,100180.72
2023-01-11T09:34:33.746Z,100176.19
2023-01-11T09:37:17.614Z,100181.75
2023-01-11T09:40:02.761Z,100178.91
2023-01-11T09:42:52.671Z,100166.72
2023-01-11T09:45:37.351Z,100167.50
2023-01-11T09:48:28.959Z,100161.19
2023-01-11T09:51:15.968Z,100170.66
2023-01-11T09:54:02.175Z,100169.72
2023-01-11T09:56:57.826Z,100168.09
2023-01-11T09:59:48.747Z,100137.28
2023-01-11T10:02:41.719Z,100163.75
2023-01-11T10:05:35.829Z,100149.31
2023-01-11T10:18:29.965Z,100151.88
2023-01-11T10:19:10.391Z,100109.25
2023-01-11T10:21:49.853Z,100154.94
2023-01-11T10:24:42.263Z,100162.47
2023-01-11T10:27:34.312Z,100146.44
2023-01-11T10:30:33.707Z,100182.28
2023-01-11T10:33:34.342Z,100161.28
2023-01-11T10:36:35.500Z,100158.28
2023-01-11T10:39:46.625Z,100119.03
2023-01-11T10:42:43.765Z,100136.38
2023-01-11T10:45:37.444Z,100135.81
2023-01-11T10:48:26.778Z,100140.19
2023-01-11T10:51:24.627Z,100128.34
2023-01-11T10:54:16.732Z,100134.81
2023-01-11T10:57:14.084Z,100121.06
2023-01-11T11:00:15.428Z,100114.72
2023-01-11T11:03:41.004Z,100122.88
2023-01-11T11:06:37.126Z,100104.88
2023-01-11T11:09:28.516Z,100120.50
2023-01-11T11:12:19.470Z,100121.81
2023-01-11T11:15:14.820Z,100132.56
2023-01-11T11:17:58.704Z,100090.34
2023-01-11T11:20:44.210Z,100066.75
2023-01-11T11:23:28.866Z,100121.50
2023-01-11T11:26:13.753Z,100110.81
2023-01-11T11:29:02.586Z,100098.34
2023-01-11T11:31:48.595Z,100119.38
2023-01-11T11:34:32.712Z,100094.88
2023-01-11T11:37:29.135Z,100113.75
2023-01-11T11:40:30.161Z,100070.91
2023-01-11T11:43:21.790Z,100105.59
2023-01-11T11:46:20.161Z,100104.94
2023-01-11T11:49:16.934Z,100118.94
2023-01-11T11:52:01.979Z,100108.53
2023-01-11T11:54:52.926Z,100078.50
2023-01-11T11:57:42.846Z,100079.19
2023-01-11T12:00:28.757Z,100126.19
2023-01-11T12:03:18.033Z,100127.03
2023-01-11T12:06:07.520Z,100113.22
2023-01-11T12:08:51.694Z,100114.78
2023-01-11T12:11:38.776Z,100119.72
2023-01-11T12:14:26.799Z,100122.28
2023-01-11T12:17:25.725Z,100122.38
2023-01-11T12:20:40.691Z,100130.56
2023-01-11T12:23:27.291Z,100125.50
2023-01-11T12:26:21.374Z,100114.78
2023-01-11T12:29:23.187Z,100125.19
2023-01-11T12:32:17.692Z,100090.53
2023-01-11T12:35:26.413Z,100122.53
2023-01-11T12:38:24.349Z,100143.09
2023-01-11T12:41:50.307Z,100141.34
2023-01-11T12:44:55.867Z,100154.78
2023-01-11T12:47:55.217Z,100158.72
2023-01-11T12:51:01.528Z,100156.88
2023-01-11T12:54:07.887Z,100165.91
2023-01-11T12:57:07.549Z,100167.66
2023-01-11T13:00:18.052Z,100179.91
2023-01-11T13:03:43.420Z,100183.59
2023-01-11T13:06:36.190Z,100176.13
2023-01-11T13:09:31.692Z,100178.16
2023-01-11T13:12:23.324Z,100181.41
2023-01-11T13:15:21.505Z,100198.78
2023-01-11T13:18:18.578Z,100199.56
2023-01-11T13:21:11.675Z,100167.69
2023-01-11T13:24:00.213Z,100203.91
2023-01-11T13:26:49.713Z,100219.25
2023-01-11T13:29:41.905Z,100226.16
2023-01-11T13:32:31.062Z,100225.56
2023-01-11T13:35:19.232Z,100237.28
2023-01-11T13:38:10.437Z,100223.19
2023-01-11T13:40:58.751Z,100240.13
2023-01-11T13:43:48.914Z,100238.75
2023-01-11T13:46:47.189Z,100219.59
2023-01-11T13:49:42.587Z,100216.16
2023-01-11T13:52:43.275Z,100249.47
2023-01-11T13:55:32.002Z,100230.72
2023-01-11T13:58:23.411Z,100238.91
2023-01-11T14:01:11.817Z,100231.25
2023-01-11T14:04:01.301Z,100224.72
2023-01-11T14:07:04.977Z,100188.19
2023-01-11T14:10:01.484Z,100220.25
2023-01-11T14:13:12.307Z,100224.34
2023-01-11T14:16:03.799Z,100213.22
2023-01-11T14:18:54.170Z,100196.75
2023-01-11T14:21:47.486Z,100199.56
2023-01-11T14:24:36.622Z,100215.00
2023-01-11T14:27:43.526Z,100215.41
2023-01-11T14:30:39.401Z,100221.59
2023-01-11T14:33:45.734Z,100207.56
2023-01-11T14:36:58.538Z,100215.91
2023-01-11T14:40:20.173Z,100183.81
2023-01-11T14:43:38.249Z,100180.69
2023-01-11T14:47:01.589Z,100212.31
2023-01-11T14:50:03.465Z,100187.91
2023-01-11T14:52:52.014Z,100178.31
2023-01-11T14:55:45.184Z,100190.13
2023-01-11T14:58:31.609Z,100198.84
2023-01-11T15:01:15.724Z,100194.97
2023-01-11T15:03:59.799Z,100225.25
2023-01-11T15:06:55.398Z,100146.84
2023-01-11T15:09:50.241Z,100216.19
2023-01-11T15:12:37.147Z,100249.97
2023-01-11T15:15:22.803Z,100192.47
2023-01-11T15:18:18.465Z,100205.81
2023-01-11T15:21:06.741Z,100175.25
2023-01-11T15:23:55.697Z,100213.34
2023-01-11T15:26:50.165Z,100241.72
2023-01-11T15:29:36.909Z,100254.44
2023-01-11T15:32:27.405Z,100211.94
2023-01-11T15:35:19.849Z,100255.88
2023-01-11T15:38:14.021Z,100215.91
2023-01-11T15:41:20.237Z,100209.22
2023-01-11T15:44:30.388Z,100211.22
2023-01-11T15:47:32.128Z,100198.09
2023-01-11T15:50:45.223Z,100226.34
2023-01-11T15:54:00.491Z,100206.28
2023-01-11T15:57:12.223Z,100214.31
2023-01-11T16:00:37.801Z,100245.19
2023-01-11T16:03:38.997Z,100215.34
2023-01-11T16:06:33.747Z,100213.00
2023-01-11T16:09:45.872Z,100248.28
2023-01-11T16:12:51.038Z,100258.66
2023-01-11T16:15:49.576Z,100269.94
2023-01-11T16:18:41.901Z,100256.97
2023-01-11T16:21:33.774Z,100242.28
2023-01-11T16:24:20.450Z,100258.75
2023-01-11T16:27:05.679Z,100274.91
2023-01-11T16:29:51.811Z,100293.75
2023-01-11T16:32:35.600Z,100293.34
2023-01-11T16:35:23.698Z,100294.75
2023-01-11T16:38:15.681Z,100293.66
2023-01-11T16:41:00.874Z,100304.22
2023-01-11T16:43:51.419Z,100304.88
2023-01-11T16:47:07.820Z,100311.31
2023-01-11T16:50:18.928Z,100312.31
2023-01-11T16:53:05.087Z,100316.53
2023-01-11T16:55:57.421Z,100316.84
2023-01-11T16:58:41.609Z,100321.84
2023-01-11T17:01:25.473Z,100313.00
2023-01-11T17:04:27.434Z,100324.03
2023-01-11T17:07:14.618Z,100310.09
2023-01-11T17:10:17.402Z,100281.56
2023-01-11T17:13:35.296Z,100306.34
2023-01-11T17:16:21.073Z,100311.88
2023-01-11T17:19:10.082Z,100309.81
2023-01-11T17:21:55.777Z,100306.94
2023-01-11T17:24:43.300Z,100311.38
2023-01-11T17:27:33.180Z,100300.81
2023-01-11T17:30:20.527Z,100312.78
2023-01-11T17:33:04.433Z,100318.22
2023-01-11T17:35:48.410Z,100304.72
2023-01-11T17:38:32.963Z,100302.09
2023-01-11T17:41:31.883Z,100292.13
2023-01-11T17:44:42.167Z,100304.81
2023-01-11T17:47:26.450Z,100287.56
2023-01-11T17:50:25.168Z,100298.91
2023-01-11T17:53:17.361Z,100305.91
2023-01-11T17:56:03.073Z,100306.41
2023-01-11T17:58:46.733Z,100315.47
2023-01-11T18:01:32.150Z,100320.91
2023-01-11T18:04:20.904Z,100325.19
2023-01-11T18:07:11.168Z,100339.81
2023-01-11T18:10:03.185Z,100342.44
2023-01-11T18:12:48.198Z,100345.88
2023-01-11T18:15:35.100Z,100341.78
2023-01-11T18:18:42.680Z,100338.75
2023-01-11T18:21:40.855Z,100309.63
2023-01-11T18:24:46.115Z,100328.63
2023-01-11T18:27:32.359Z,100337.16
2023-01-11T18:30:38.154Z,100338.50
2023-01-11T18:33:24.059Z,100309.50
2023-01-11T18:36:21.261Z,100318.59
2023-01-11T18:39:12.009Z,100312.03
2023-01-11T18:42:16.344Z,100313.13
2023-01-11T18:45:00.414Z,100321.91
2023-01-11T18:47:44.438Z,100318.47
2023-01-11T18:50:28.906Z,100317.06
2023-01-11T18:53:15.496Z,100309.91
2023-01-11T18:55:59.839Z,100284.91
2023-01-11T18:58:43.962Z,100314.41
2023-01-11T19:01:30.502Z,100320.19
2023-01-11T19:04:18.662Z,100330.97
2023-01-11T19:07:03.212Z,100312.44
2023-01-11T19:09:48.787Z,100303.84
2023-01-11T19:12:33.193Z,100301.47
2023-01-11T19:15:18.226Z,100296.50
2023-01-11T19:18:04.459Z,100316.59
2023-01-11T19:20:49.629Z,100297.66
2023-01-11T19:23:35.002Z,100297.66
2023-01-11T19:26:24.597Z,100243.50
2023-01-11T19:29:09.453Z,100301.16
2023-01-11T19:31:56.709Z,100309.44
2023-01-11T19:34:41.775Z,100294.63
2023-01-11T19:37:26.407Z,100283.06
2023-01-11T19:40:13.071Z,100319.16
2023-01-11T19:43:00.576Z,100304.66
2023-01-11T19:45:46.264Z,100277.97
2023-01-11T19:48:33.637Z,100289.91
2023-01-11T19:51:17.705Z,100294.03
2023-01-11T19:54:02.196Z,100289.38
2023-01-11T19:56:47.554Z,100286.59
2023-01-11T19:59:33.770Z,100251.91
2023-01-11T20:02:21.636Z,100252.91
2023-01-11T20:05:07.711Z,100295.81
2023-01-11T20:07:51.705Z,100287.88
2023-01-11T20:10:36.225Z,100325.72
2023-01-11T20:13:20.266Z,100298.03
2023-01-11T20:16:09.099Z,100317.00
2023-01-11T20:18:53.904Z,100303.78
2023-01-11T20:21:37.851Z,100324.00
2023-01-11T20:24:28.154Z,100313.69
2023-01-11T20:27:12.105Z,100333.41
2023-01-11T20:29:56.091Z,100316.03
2023-01-11T20:32:42.599Z,100299.25
2023-01-11T20:35:27.763Z,100289.69
2023-01-11T20:38:12.006Z,100297.38
2023-01-11T20:40:56.243Z,100289.09
2023-01-11T20:43:40.884Z,100314.00
2023-01-11T20:46:25.151Z,100297.81
2023-01-11T20:49:10.578Z,100283.44
2023-01-11T20:51:54.755Z,100299.00
2023-01-11T20:54:38.548Z,100305.69
2023-01-11T20:57:22.476Z,100315.63
2023-01-11T21:02:53.713Z,100337.91
2023-01-11T21:05:39.721Z,100336.31
2023-01-11T21:08:23.779Z,100347.06
2023-01-11T21:11:08.945Z,100330.31
2023-01-11T21:13:53.971Z,100352.38
2023-01-11T21:16:37.756Z,100344.50
2023-01-11T21:19:21.554Z,100363.19
2023-01-11T21:22:06.895Z,100366.09
2023-01-11T21:24:50.725Z,100362.19
2023-01-11T21:27:34.626Z,100348.66
2023-01-11T21:30:19.087Z,100371.63
2023-01-11T21:33:02.803Z,100370.91
2023-01-11T21:35:46.716Z,100355.88
2023-01-11T21:38:32.939Z,100339.38
2023-01-11T21:41:19.372Z,100352.97
2023-01-11T21:44:03.237Z,100344.28
2023-01-11T21:46:47.578Z,100317.72
2023-01-11T21:49:31.544Z,100342.56
2023-01-11T21:52:15.488Z,100328.53
2023-01-11T21:55:01.761Z,100338.78
2023-01-11T21:57:47.295Z,100341.88
2023-01-11T22:00:31.642Z,100326.44
2023-01-11T22:03:15.446Z,100342.59
2023-01-11T22:06:01.809Z,100345.78
2023-01-11T22:08:46.582Z,100301.78
2023-01-11T22:11:33.203Z,100353.28
2023-01-11T22:14:16.982Z,100348.09
2023-01-11T22:17:02.529Z,100285.75
2023-01-11T22:19:48.105Z,100342.22
2023-01-11T22:22:32.112Z,100325.47
2023-01-11T22:25:16.206Z,100354.22
2023-01-11T22:28:01.510Z,100332.31
2023-01-11T22:30:45.454Z,100360.91
2023-01-11T22:33:29.293Z,100337.56
2023-01-11T22:36:14.233Z,100337.75
2023-01-11T22:38:58.657Z,100332.38
2023-01-11T22:41:45.574Z,100337.22
2023-01-11T22:44:31.058Z,100338.75
2023-01-11T22:47:14.934Z,100332.66
2023-01-11T22:49:58.923Z,100329.25
2023-01-11T22:52:42.852Z,100319.38
2023-01-11T22:55:26.773Z,100315.28
2023-01-11T22:58:10.715Z,100329.75
2023-01-11T23:00:56.044Z,100328.22
2023-01-11T23:03:40.746Z,100226.13
2023-01-11T23:06:26.649Z,100266.19
2023-01-11T23:09:16.039Z,100304.03
2023-01-11T23:12:17.493Z,100303.53
2023-01-11T23:15:01.369Z,100303.88
2023-01-11T23:17:49.389Z,100275.81
2023-01-11T23:20:35.490Z,100254.13
2023-01-11T23:23:19.318Z,100297.75
2023-01-11T23:26:03.285Z,100307.03
2023-01-11T23:28:47.269Z,100292.84
2023-01-11T23:31:31.181Z,100299.47
2023-01-11T23:34:16.762Z,100309.78
2023-01-11T23:37:00.658Z,100311.84
2023-01-11T23:39:44.664Z,100326.78
2023-01-11T23:42:27.578Z,100334.19
2023-01-11T23:45:12.222Z,100307.69
2023-01-11T23:47:55.142Z,100346.00
2023-01-11T23:50:40.399Z,100309.75
2023-01-11T23:53:24.343Z,100329.91
2023-01-11T23:56:09.188Z,100346.13
2023-01-11T23:58:53.297Z,100325.81
